Time;durP1;ratioP1;P1;durP2;ratioP2;P2;SDS_P1;SDS_P2;PMS_P1;PMS_P2;Temp;Humidity;BMP_temperature;BMP_pressure;BME280_temperature;BME280_humidity;BME280_pressure;Samples;Min_cycle;Max_cycle;Signal;HPM_P1;HPM_P2
2022/03/29 00:01:16;;;;;;;20.35;11.95;;;;;;;;;;5044548;28;20037;-61
2022/03/29 00:03:42;;;;;;;22.00;11.68;;;;;;;;;;5035263;28;20045;-61
2022/03/29 00:06:08;;;;;;;21.63;12.82;;;;;;;;;;5036970;28;20063;-61
2022/03/29 00:08:34;;;;;;;22.33;12.90;;;;;;;;;;5036903;28;20045;-60
2022/03/29 00:11:00;;;;;;;19.98;12.10;;;;;;;;;;5042464;28;20037;-61
2022/03/29 00:13:29;;;;;;;23.27;13.88;;;;;;;;;;5053651;28;20041;-60
2022/03/29 00:15:55;;;;;;;21.90;13.38;;;;;;;;;;5035281;28;20072;-61
2022/03/29 00:18:21;;;;;;;19.98;12.77;;;;;;;;;;5034150;28;20042;-60
2022/03/29 00:20:47;;;;;;;25.33;14.05;;;;;;;;;;5031914;28;20090;-61
2022/03/29 00:23:13;;;;;;;23.08;14.00;;;;;;;;;;5054369;28;20418;-61
2022/03/29 00:25:39;;;;;;;22.73;13.75;;;;;;;;;;5048613;28;20045;-61
2022/03/29 00:28:05;;;;;;;26.13;15.40;;;;;;;;;;5054706;28;20037;-61
2022/03/29 00:30:31;;;;;;;25.50;16.63;;;;;;;;;;5041031;28;20050;-61
2022/03/29 00:32:57;;;;;;;24.77;15.68;;;;;;;;;;5033958;28;20801;-61
2022/03/29 00:35:24;;;;;;;23.00;14.93;;;;;;;;;;5033915;28;20057;-61
2022/03/29 00:37:53;;;;;;;30.42;17.90;;;;;;;;;;5038021;28;20033;-60
2022/03/29 00:40:20;;;;;;;31.13;17.50;;;;;;;;;;5025087;28;20099;-61
2022/03/29 00:42:46;;;;;;;27.67;16.90;;;;;;;;;;5036177;28;20045;-60
2022/03/29 00:45:12;;;;;;;30.58;18.38;;;;;;;;;;5051644;28;20748;-61
2022/03/29 00:47:38;;;;;;;35.33;21.48;;;;;;;;;;5051892;28;20116;-61
2022/03/29 00:50:05;;;;;;;32.78;18.35;;;;;;;;;;5051126;28;20041;-61
2022/03/29 00:52:33;;;;;;;27.50;17.63;;;;;;;;;;5053518;28;20389;-61
2022/03/29 00:55:00;;;;;;;34.25;17.90;;;;;;;;;;5053564;28;20090;-60
2022/03/29 00:57:28;;;;;;;32.53;18.45;;;;;;;;;;5053320;28;20037;-61
2022/03/29 00:59:54;;;;;;;33.10;18.38;;;;;;;;;;5048792;28;20037;-61
2022/03/29 01:02:20;;;;;;;34.03;20.70;;;;;;;;;;5033712;28;20049;-60
2022/03/29 01:04:49;;;;;;;30.17;19.02;;;;;;;;;;5033515;28;20088;-61
2022/03/29 01:07:15;;;;;;;28.80;18.10;;;;;;;;;;5033416;28;20033;-61
2022/03/29 01:09:41;;;;;;;30.33;18.65;;;;;;;;;;5039400;28;20056;-61
2022/03/29 01:12:08;;;;;;;29.92;17.60;;;;;;;;;;5048304;28;20040;-61
2022/03/29 01:14:34;;;;;;;27.88;17.38;;;;;;;;;;5017422;28;20045;-61
2022/03/29 01:19:47;;;;;;;29.52;19.00;;;;;;;;;;5036907;28;20049;-61
2022/03/29 01:22:13;;;;;;;29.38;18.13;;;;;;;;;;5033133;28;20152;-61
2022/03/29 01:24:43;;;;;;;27.15;16.70;;;;;;;;;;5034052;28;20512;-61
2022/03/29 01:27:10;;;;;;;32.75;16.70;;;;;;;;;;5033397;28;20045;-61
2022/03/29 01:29:37;;;;;;;27.63;16.65;;;;;;;;;;5018956;28;20378;-61
2022/03/29 01:32:04;;;;;;;30.05;18.52;;;;;;;;;;5052427;28;20377;-61
2022/03/29 01:34:31;;;;;;;30.20;18.10;;;;;;;;;;5051086;28;20567;-61
2022/03/29 01:36:57;;;;;;;30.77;17.23;;;;;;;;;;5041991;28;20042;-61
2022/03/29 01:39:23;;;;;;;26.67;16.27;;;;;;;;;;5046248;28;20497;-61
2022/03/29 01:41:49;;;;;;;26.23;15.52;;;;;;;;;;5034089;28;20184;-61
2022/03/29 01:44:15;;;;;;;26.70;15.95;;;;;;;;;;5045200;28;20049;-61
2022/03/29 01:46:42;;;;;;;27.90;17.65;;;;;;;;;;5033632;28;20501;-61
2022/03/29 01:49:08;;;;;;;30.23;17.08;;;;;;;;;;5032741;28;20047;-61
2022/03/29 01:51:34;;;;;;;27.75;17.88;;;;;;;;;;5051565;28;20076;-61
2022/03/29 01:54:02;;;;;;;26.90;16.23;;;;;;;;;;5052400;28;20091;-61
2022/03/29 01:56:32;;;;;;;29.63;17.63;;;;;;;;;;5030801;28;20045;-61
2022/03/29 01:58:58;;;;;;;27.60;17.02;;;;;;;;;;5015039;28;20052;-61
2022/03/29 02:01:24;;;;;;;27.65;16.13;;;;;;;;;;5018267;28;20057;-61
2022/03/29 02:03:50;;;;;;;27.63;17.30;;;;;;;;;;5057153;28;20044;-61
2022/03/29 02:06:16;;;;;;;30.55;17.35;;;;;;;;;;5050395;28;20123;-61
2022/03/29 02:08:43;;;;;;;28.45;16.45;;;;;;;;;;5052221;28;20072;-61
2022/03/29 02:11:09;;;;;;;30.98;16.95;;;;;;;;;;5043018;28;20110;-61
2022/03/29 02:13:38;;;;;;;27.30;16.80;;;;;;;;;;5052170;28;20037;-61
2022/03/29 02:16:05;;;;;;;28.15;16.58;;;;;;;;;;5041678;28;20076;-61
2022/03/29 02:18:31;;;;;;;28.17;17.52;;;;;;;;;;5065790;28;20041;-61
2022/03/29 02:20:57;;;;;;;27.40;17.55;;;;;;;;;;5038644;28;20041;-61
2022/03/29 02:23:23;;;;;;;28.55;16.77;;;;;;;;;;5032435;28;20053;-61
2022/03/29 02:25:49;;;;;;;29.50;16.45;;;;;;;;;;5033489;28;20056;-61
2022/03/29 02:28:15;;;;;;;27.90;16.73;;;;;;;;;;5034447;28;20384;-61
2022/03/29 02:30:44;;;;;;;33.05;17.75;;;;;;;;;;5047053;28;20120;-61
2022/03/29 02:33:10;;;;;;;32.72;17.30;;;;;;;;;;5018651;28;20033;-61
2022/03/29 02:35:36;;;;;;;30.92;16.95;;;;;;;;;;5037057;28;20393;-61
2022/03/29 02:38:02;;;;;;;32.10;17.73;;;;;;;;;;5021016;28;20535;-61
2022/03/29 02:40:29;;;;;;;29.95;17.45;;;;;;;;;;5047045;28;20037;-61
2022/03/29 02:42:55;;;;;;;32.60;18.60;;;;;;;;;;5052367;28;20080;-61
2022/03/29 02:45:23;;;;;;;30.27;17.70;;;;;;;;;;5036017;28;20134;-61
2022/03/29 02:47:50;;;;;;;32.45;18.08;;;;;;;;;;5040802;28;20043;-60
2022/03/29 02:50:17;;;;;;;34.35;18.67;;;;;;;;;;5047899;28;20042;-61
2022/03/29 02:53:02;;;;;;;32.08;18.70;;;;;;;;;;5035978;28;20083;-61
2022/03/29 02:55:30;;;;;;;31.60;17.23;;;;;;;;;;5035722;28;20478;-61
2022/03/29 02:57:56;;;;;;;29.05;16.83;;;;;;;;;;5032903;28;20055;-61
2022/03/29 03:00:22;;;;;;;32.38;17.80;;;;;;;;;;5049891;28;20049;-61
2022/03/29 03:02:49;;;;;;;30.17;17.92;;;;;;;;;;5021370;28;20043;-61
2022/03/29 03:05:24;;;;;;;37.28;17.70;;;;;;;;;;5037069;28;20045;-61
2022/03/29 03:07:50;;;;;;;32.13;18.25;;;;;;;;;;5055626;28;20048;-61
2022/03/29 03:10:16;;;;;;;33.95;17.70;;;;;;;;;;5053495;28;20036;-61
2022/03/29 03:12:43;;;;;;;35.15;18.13;;;;;;;;;;5017661;28;20049;-61
2022/03/29 03:15:10;;;;;;;30.55;17.60;;;;;;;;;;5037806;28;20049;-61
2022/03/29 03:17:36;;;;;;;36.85;19.08;;;;;;;;;;5055170;28;20069;-61
2022/03/29 03:20:03;;;;;;;36.65;17.67;;;;;;;;;;5043826;28;20040;-61
2022/03/29 03:22:29;;;;;;;37.10;18.10;;;;;;;;;;5023209;28;20073;-61
2022/03/29 03:24:55;;;;;;;40.00;18.48;;;;;;;;;;5041356;28;20048;-61
2022/03/29 03:27:21;;;;;;;32.78;18.88;;;;;;;;;;5042993;28;20037;-61
2022/03/29 03:29:47;;;;;;;40.83;19.98;;;;;;;;;;5055002;28;20103;-61
2022/03/29 03:32:13;;;;;;;37.17;19.40;;;;;;;;;;5055244;28;20435;-62
2022/03/29 03:34:40;;;;;;;36.95;19.00;;;;;;;;;;5054727;28;20460;-61
2022/03/29 03:37:06;;;;;;;33.85;18.92;;;;;;;;;;5047020;28;20041;-61
2022/03/29 03:39:37;;;;;;;37.75;20.02;;;;;;;;;;5060224;28;20044;-61
2022/03/29 03:42:07;;;;;;;34.88;18.83;;;;;;;;;;5043509;28;20495;-61
2022/03/29 03:44:33;;;;;;;30.80;17.43;;;;;;;;;;5054784;28;20052;-61
2022/03/29 03:47:02;;;;;;;33.55;17.38;;;;;;;;;;5051264;28;20076;-61
2022/03/29 03:49:28;;;;;;;32.03;16.50;;;;;;;;;;5042029;28;20129;-61
2022/03/29 03:51:54;;;;;;;35.25;17.75;;;;;;;;;;5034804;28;20110;-62
2022/03/29 03:54:23;;;;;;;36.53;17.58;;;;;;;;;;5041751;28;20045;-61
2022/03/29 03:56:49;;;;;;;34.20;17.58;;;;;;;;;;5071631;28;20044;-61
2022/03/29 03:59:15;;;;;;;38.42;17.73;;;;;;;;;;5053041;28;20048;-61
2022/03/29 04:01:41;;;;;;;37.17;17.88;;;;;;;;;;5043990;28;20095;-61
2022/03/29 04:04:07;;;;;;;35.50;17.48;;;;;;;;;;5034676;28;20156;-60
2022/03/29 04:06:33;;;;;;;34.53;17.95;;;;;;;;;;5017165;28;20410;-61
2022/03/29 04:09:00;;;;;;;33.92;18.35;;;;;;;;;;5043111;28;20044;-61
2022/03/29 04:11:28;;;;;;;35.30;17.77;;;;;;;;;;5053477;28;20087;-61
2022/03/29 04:13:54;;;;;;;31.92;17.58;;;;;;;;;;5035284;28;20037;-61
2022/03/29 04:16:23;;;;;;;37.03;18.23;;;;;;;;;;5043766;28;20676;-61
2022/03/29 04:18:49;;;;;;;36.78;17.80;;;;;;;;;;5035918;28;20056;-61
2022/03/29 04:21:15;;;;;;;37.28;18.85;;;;;;;;;;5016667;28;20473;-61
2022/03/29 04:23:41;;;;;;;37.88;16.88;;;;;;;;;;5013261;28;20037;-61
2022/03/29 04:26:07;;;;;;;35.25;19.60;;;;;;;;;;5053980;28;20346;-61
2022/03/29 04:28:33;;;;;;;37.67;18.30;;;;;;;;;;5052524;28;20051;-61
2022/03/29 04:30:59;;;;;;;32.30;16.75;;;;;;;;;;5053759;28;20052;-61
2022/03/29 04:33:26;;;;;;;33.45;17.55;;;;;;;;;;5040484;28;20041;-61
2022/03/29 04:35:54;;;;;;;34.83;17.48;;;;;;;;;;5041049;28;20064;-61
2022/03/29 04:38:21;;;;;;;32.85;17.38;;;;;;;;;;5039950;28;20038;-61
2022/03/29 04:40:47;;;;;;;35.05;18.10;;;;;;;;;;5016642;28;20050;-61
2022/03/29 04:43:13;;;;;;;33.25;18.08;;;;;;;;;;5035098;28;20053;-61
2022/03/29 04:45:42;;;;;;;35.60;19.10;;;;;;;;;;5033886;28;20124;-61
2022/03/29 04:48:09;;;;;;;37.10;18.20;;;;;;;;;;5042476;28;20048;-61
2022/03/29 04:50:35;;;;;;;35.90;17.27;;;;;;;;;;5032929;28;20049;-61
2022/03/29 04:53:04;;;;;;;34.55;19.10;;;;;;;;;;5017350;28;20038;-61
2022/03/29 04:55:30;;;;;;;36.83;18.20;;;;;;;;;;5033775;28;20045;-61
2022/03/29 04:57:57;;;;;;;36.13;18.70;;;;;;;;;;5043148;28;20163;-61
2022/03/29 05:00:23;;;;;;;37.53;18.45;;;;;;;;;;5051790;28;20072;-61
2022/03/29 05:02:49;;;;;;;37.47;18.48;;;;;;;;;;5046491;28;20053;-61
2022/03/29 05:05:16;;;;;;;34.70;18.40;;;;;;;;;;5030174;28;20037;-61
2022/03/29 05:07:43;;;;;;;36.72;17.88;;;;;;;;;;5052447;28;20132;-61
2022/03/29 05:10:11;;;;;;;33.47;18.13;;;;;;;;;;5051485;28;20045;-61
2022/03/29 05:12:44;;;;;;;37.38;18.30;;;;;;;;;;5037294;28;20092;-61
2022/03/29 05:15:11;;;;;;;31.88;17.85;;;;;;;;;;5040311;28;20037;-61
2022/03/29 05:17:37;;;;;;;33.25;16.63;;;;;;;;;;5034610;28;20060;-61
2022/03/29 05:20:04;;;;;;;37.35;17.17;;;;;;;;;;5052949;28;20044;-61
2022/03/29 05:22:30;;;;;;;32.80;16.20;;;;;;;;;;5052868;28;20045;-61
2022/03/29 05:24:56;;;;;;;33.60;17.55;;;;;;;;;;5052797;28;20047;-61
2022/03/29 05:27:22;;;;;;;42.65;18.33;;;;;;;;;;5051242;28;20693;-61
2022/03/29 05:29:49;;;;;;;33.42;17.50;;;;;;;;;;5053051;28;20429;-61
2022/03/29 05:32:18;;;;;;;32.22;17.30;;;;;;;;;;5038948;28;20120;-60
2022/03/29 05:34:51;;;;;;;33.85;18.70;;;;;;;;;;5029593;28;20375;-61
2022/03/29 05:37:17;;;;;;;35.13;18.95;;;;;;;;;;5033842;28;20116;-61
2022/03/29 05:39:43;;;;;;;35.92;17.17;;;;;;;;;;5015443;28;20500;-58
2022/03/29 05:42:12;;;;;;;37.63;19.45;;;;;;;;;;5032863;28;20081;-60
2022/03/29 05:44:39;;;;;;;35.67;17.52;;;;;;;;;;5020902;28;20046;-60
2022/03/29 05:49:51;;;;;;;39.03;18.20;;;;;;;;;;5035061;28;20061;-60
2022/03/29 05:52:17;;;;;;;36.50;17.85;;;;;;;;;;5052726;28;20454;-60
2022/03/29 05:54:45;;;;;;;34.05;17.60;;;;;;;;;;5052595;28;20135;-60
2022/03/29 05:57:14;;;;;;;34.25;18.17;;;;;;;;;;5050742;28;20051;-60
2022/03/29 05:59:40;;;;;;;34.75;17.42;;;;;;;;;;5034008;28;20095;-60
2022/03/29 06:02:08;;;;;;;35.17;18.27;;;;;;;;;;5037540;28;20477;-60
2022/03/29 06:04:37;;;;;;;34.35;18.00;;;;;;;;;;5034389;28;20041;-60
2022/03/29 06:07:07;;;;;;;31.17;17.08;;;;;;;;;;5033450;28;20459;-60
2022/03/29 06:09:34;;;;;;;35.50;17.33;;;;;;;;;;5014848;28;20053;-60
2022/03/29 06:12:01;;;;;;;36.30;17.70;;;;;;;;;;5014957;28;20041;-60
2022/03/29 06:14:27;;;;;;;37.53;18.92;;;;;;;;;;5018850;28;20045;-60
2022/03/29 06:16:55;;;;;;;34.17;17.58;;;;;;;;;;5039877;28;20068;-60
2022/03/29 06:19:21;;;;;;;37.17;18.42;;;;;;;;;;5032406;28;20041;-60
2022/03/29 06:21:47;;;;;;;38.38;18.95;;;;;;;;;;5032852;28;20045;-60
2022/03/29 06:24:13;;;;;;;36.67;18.45;;;;;;;;;;5032246;28;20087;-60
2022/03/29 06:26:39;;;;;;;39.17;19.65;;;;;;;;;;5032083;28;20049;-61
2022/03/29 06:29:06;;;;;;;38.63;18.63;;;;;;;;;;5049741;28;20033;-60
2022/03/29 06:31:32;;;;;;;37.40;18.30;;;;;;;;;;5041989;28;20103;-60
2022/03/29 06:33:58;;;;;;;35.50;18.63;;;;;;;;;;5031073;28;20068;-60
2022/03/29 06:36:25;;;;;;;32.60;17.30;;;;;;;;;;5050764;28;20053;-60
2022/03/29 06:38:51;;;;;;;41.58;19.02;;;;;;;;;;5040421;28;20384;-60
2022/03/29 06:41:17;;;;;;;32.63;17.33;;;;;;;;;;5051840;28;20132;-60
2022/03/29 06:43:43;;;;;;;41.83;17.65;;;;;;;;;;5051733;28;20041;-60
2022/03/29 06:46:11;;;;;;;38.40;19.27;;;;;;;;;;5050052;28;20041;-60
2022/03/29 06:48:37;;;;;;;34.90;18.63;;;;;;;;;;5051136;28;20045;-60
2022/03/29 06:51:03;;;;;;;29.85;17.92;;;;;;;;;;5051324;28;20045;-60
2022/03/29 06:53:29;;;;;;;34.83;19.02;;;;;;;;;;5049974;28;20048;-60
2022/03/29 06:55:56;;;;;;;34.97;18.55;;;;;;;;;;5051554;28;20041;-60
2022/03/29 06:58:22;;;;;;;38.83;20.25;;;;;;;;;;5035708;28;20063;-60
2022/03/29 07:00:50;;;;;;;37.47;17.25;;;;;;;;;;5031911;28;20042;-60
2022/03/29 07:03:16;;;;;;;35.13;16.80;;;;;;;;;;5044745;28;20452;-60
2022/03/29 07:05:42;;;;;;;44.53;19.02;;;;;;;;;;5047644;28;20068;-60
2022/03/29 07:08:14;;;;;;;44.83;19.80;;;;;;;;;;5050941;28;20047;-60
2022/03/29 07:13:25;;;;;;;33.67;18.05;;;;;;;;;;5044479;28;20042;-60
2022/03/29 07:15:52;;;;;;;34.42;18.10;;;;;;;;;;5027225;28;20049;-60
2022/03/29 07:18:18;;;;;;;39.47;18.17;;;;;;;;;;5053274;28;20044;-60
2022/03/29 07:20:46;;;;;;;38.88;18.13;;;;;;;;;;5055295;28;20044;-60
2022/03/29 07:23:12;;;;;;;36.65;19.00;;;;;;;;;;5055101;28;20128;-60
2022/03/29 07:25:39;;;;;;;32.28;17.48;;;;;;;;;;5053757;28;20124;-60
2022/03/29 07:28:11;;;;;;;30.02;18.00;;;;;;;;;;5049317;28;20376;-60
2022/03/29 07:30:38;;;;;;;34.38;17.88;;;;;;;;;;5032685;28;20393;-60
2022/03/29 07:33:04;;;;;;;33.53;18.05;;;;;;;;;;5037380;28;20041;-60
2022/03/29 07:35:31;;;;;;;36.75;18.42;;;;;;;;;;5034926;28;20119;-61
2022/03/29 07:37:58;;;;;;;36.00;17.65;;;;;;;;;;5027795;28;20079;-61
2022/03/29 07:40:25;;;;;;;41.40;18.58;;;;;;;;;;5040538;28;20478;-61
2022/03/29 07:42:52;;;;;;;35.28;19.48;;;;;;;;;;5035493;28;20396;-61
2022/03/29 07:45:18;;;;;;;33.20;19.65;;;;;;;;;;5028406;28;20043;-61
2022/03/29 07:47:46;;;;;;;37.33;16.98;;;;;;;;;;5054867;28;20055;-61
2022/03/29 07:50:13;;;;;;;35.08;18.60;;;;;;;;;;5053469;28;20041;-61
2022/03/29 07:52:40;;;;;;;35.65;18.20;;;;;;;;;;5049276;28;20069;-61
2022/03/29 07:55:07;;;;;;;40.92;20.08;;;;;;;;;;5048342;28;20045;-62
2022/03/29 07:57:34;;;;;;;33.92;19.05;;;;;;;;;;5052950;28;20436;-61
2022/03/29 08:00:00;;;;;;;35.70;19.55;;;;;;;;;;5035350;28;20130;-61
2022/03/29 08:02:26;;;;;;;36.08;20.45;;;;;;;;;;5053496;28;20045;-62
2022/03/29 08:04:52;;;;;;;34.70;17.83;;;;;;;;;;5016605;28;20551;-61
2022/03/29 08:07:18;;;;;;;39.35;18.17;;;;;;;;;;5043717;28;20037;-61
2022/03/29 08:09:44;;;;;;;36.42;18.35;;;;;;;;;;5016919;28;20049;-62
2022/03/29 08:12:10;;;;;;;36.65;18.75;;;;;;;;;;5047788;28;20110;-62
2022/03/29 08:14:37;;;;;;;36.88;18.30;;;;;;;;;;5047227;28;20048;-62
2022/03/29 08:17:03;;;;;;;35.92;20.17;;;;;;;;;;5034255;28;20124;-61
2022/03/29 08:19:30;;;;;;;45.10;20.27;;;;;;;;;;5034223;28;20053;-61
2022/03/29 08:21:57;;;;;;;41.45;19.65;;;;;;;;;;5017595;28;20049;-62
2022/03/29 08:24:25;;;;;;;37.15;19.65;;;;;;;;;;5052792;28;20127;-61
2022/03/29 08:26:54;;;;;;;35.13;18.17;;;;;;;;;;5053530;28;20059;-61
2022/03/29 08:29:21;;;;;;;38.25;18.27;;;;;;;;;;5021358;28;20095;-61
2022/03/29 08:31:51;;;;;;;36.70;18.38;;;;;;;;;;5033925;28;20056;-63
2022/03/29 08:34:18;;;;;;;40.33;19.77;;;;;;;;;;5053083;28;20124;-61
2022/03/29 08:36:44;;;;;;;39.15;18.15;;;;;;;;;;5051383;28;20052;-61
2022/03/29 08:39:16;;;;;;;37.50;20.10;;;;;;;;;;5041853;28;20042;-61
2022/03/29 08:41:47;;;;;;;40.50;18.33;;;;;;;;;;5000250;28;20049;-61
2022/03/29 08:44:13;;;;;;;40.03;18.73;;;;;;;;;;5019457;28;20040;-61
2022/03/29 08:46:42;;;;;;;39.30;18.50;;;;;;;;;;5053394;28;20515;-61
2022/03/29 08:49:08;;;;;;;37.30;17.63;;;;;;;;;;5053579;28;20504;-61
2022/03/29 08:51:38;;;;;;;35.40;17.58;;;;;;;;;;5053708;28;20045;-61
2022/03/29 08:54:05;;;;;;;41.97;18.88;;;;;;;;;;5047165;28;20041;-61
2022/03/29 08:56:31;;;;;;;37.95;19.02;;;;;;;;;;5044913;28;20040;-61
2022/03/29 08:58:57;;;;;;;36.60;19.35;;;;;;;;;;5041188;28;20033;-61
2022/03/29 09:01:27;;;;;;;37.47;17.75;;;;;;;;;;5033988;28;20080;-61
2022/03/29 09:04:10;;;;;;;39.42;19.50;;;;;;;;;;5037626;28;20049;-61
2022/03/29 09:06:54;;;;;;;40.83;18.67;;;;;;;;;;5033509;28;20041;-61
2022/03/29 09:09:24;;;;;;;37.00;18.17;;;;;;;;;;5035117;28;20520;-61
2022/03/29 09:11:53;;;;;;;34.03;19.55;;;;;;;;;;5051409;28;20045;-61
2022/03/29 09:14:19;;;;;;;36.65;19.90;;;;;;;;;;5052489;28;20485;-60
2022/03/29 09:16:45;;;;;;;44.22;19.67;;;;;;;;;;5052884;28;20044;-61
2022/03/29 09:19:11;;;;;;;35.00;18.58;;;;;;;;;;5046638;28;20041;-60
2022/03/29 09:21:44;;;;;;;35.70;19.42;;;;;;;;;;5052956;28;20041;-60
2022/03/29 09:24:11;;;;;;;34.80;19.10;;;;;;;;;;5036464;28;20068;-60
2022/03/29 09:26:38;;;;;;;43.08;19.05;;;;;;;;;;5045036;28;20044;-61
2022/03/29 09:29:12;;;;;;;41.00;19.58;;;;;;;;;;5019503;28;20064;-60
2022/03/29 09:31:39;;;;;;;39.85;18.92;;;;;;;;;;5034148;28;20381;-60
2022/03/29 09:34:19;;;;;;;33.55;17.88;;;;;;;;;;5037230;28;20049;-60
2022/03/29 09:36:50;;;;;;;38.65;19.02;;;;;;;;;;5043733;28;20049;-60
2022/03/29 09:39:41;;;;;;;41.13;18.55;;;9.00;99.90;;;;;;5033974;28;20115;-60
2022/03/29 09:42:07;;;;;;;36.63;18.35;;;;;;;;;;5032755;28;20111;-60
2022/03/29 09:44:43;;;;;;;35.35;17.75;;;;;;;;;;5006024;28;20061;-60
2022/03/29 09:47:10;;;;;;;32.58;16.40;;;;;;;;;;5016264;28;20057;-60
2022/03/29 09:49:55;;;;;;;38.95;18.58;;;;;;;;;;5049760;28;20036;-60
2022/03/29 09:52:23;;;;;;;35.65;17.25;;;;;;;;;;5052123;28;20094;-61
2022/03/29 09:55:10;;;;;;;34.55;17.25;;;9.30;99.90;;;;;;5051737;28;20120;-60
2022/03/29 09:57:40;;;;;;;32.80;17.27;;;;;;;;;;5051035;28;20435;-60
2022/03/29 10:00:07;;;;;;;32.00;18.38;;;;;;;;;;5036141;28;20124;-60
2022/03/29 10:02:40;;;;;;;43.10;20.33;;;;;;;;;;5032520;28;20049;-60
2022/03/29 10:05:09;;;;;;;34.83;18.10;;;;;;;;;;5014793;28;20175;-60
2022/03/29 10:07:41;;;;;;;35.35;17.65;;;;;;;;;;5032331;28;20051;-60
2022/03/29 10:10:08;;;;;;;44.08;19.23;;;;;;;;;;5032649;28;20041;-60
2022/03/29 10:12:37;;;;;;;38.55;17.55;;;;;;;;;;5043216;28;20053;-60
2022/03/29 10:15:04;;;;;;;37.20;18.88;;;;;;;;;;5049266;28;20041;-60
2022/03/29 10:17:33;;;;;;;38.58;16.83;;;;;;;;;;5050798;28;20041;-60
2022/03/29 10:20:01;;;;;;;34.20;16.65;;;;;;;;;;5038484;28;20068;-61
2022/03/29 10:22:27;;;;;;;32.42;16.42;;;;;;;;;;5028261;28;20120;-59
2022/03/29 10:24:53;;;;;;;37.65;16.60;;;;;;;;;;5045610;28;20549;-60
2022/03/29 10:27:24;;;;;;;35.78;15.75;;;;;;;;;;5049272;28;20045;-60
2022/03/29 10:29:50;;;;;;;36.08;17.00;;;;;;;;;;5032153;28;20033;-61
2022/03/29 10:32:31;;;;;;;32.42;17.50;;;;;;;;;;5045857;28;20044;-60
2022/03/29 10:35:10;;;;;;;34.17;16.80;;;;;;;;;;5034556;28;20089;-60
2022/03/29 10:37:55;;;;;;;34.17;17.77;;;10.70;99.90;;;;;;5033349;28;20080;-60
2022/03/29 10:40:38;;;;;;;37.88;17.67;;;;;;;;;;5039490;28;20055;-60
2022/03/29 10:43:29;;;;;;;35.15;16.83;;;10.90;99.90;;;;;;5049992;28;20037;-60
2022/03/29 10:45:59;;;;;;;37.17;17.15;;;;;;;;;;5052189;28;20128;-60
2022/03/29 10:48:27;;;;;;;31.05;15.85;;;;;;;;;;5033221;28;20072;-60
2022/03/29 10:50:57;;;;;;;30.33;15.93;;;;;;;;;;5037055;28;20197;-60
2022/03/29 10:53:36;;;;;;;38.05;17.58;;;;;;;;;;5037065;28;20128;-60
2022/03/29 10:56:08;;;;;;;32.08;16.58;;;;;;;;;;5041970;28;20033;-60
2022/03/29 10:58:34;;;;;;;32.85;15.48;;;;;;;;;;5046736;28;20190;-60
2022/03/29 11:01:13;;;;;;;38.03;16.40;;;;;;;;;;5052064;28;20040;-60
2022/03/29 11:03:58;;;;;;;36.80;16.50;;;;;;;;;;5054853;28;20051;-60
2022/03/29 11:06:27;;;;;;;32.30;15.48;;;;;;;;;;5053650;28;20110;-60
2022/03/29 11:09:09;;;;;;;33.05;15.48;;;;;;;;;;5055682;28;20095;-60
2022/03/29 11:11:46;;;;;;;33.20;15.30;;;;;;;;;;5032099;28;20033;-60
2022/03/29 11:14:28;;;;;;;29.27;16.02;;;;;;;;;;5037019;28;20436;-59
2022/03/29 11:17:16;;;;;;;34.35;15.75;;;;;;;;;;5037392;28;20049;-60
2022/03/29 11:19:48;;;;;;;37.83;16.20;;;;;;;;;;5024456;28;20045;-59
2022/03/29 11:22:42;;;;;;;36.33;15.75;;;;;;;;;;5045597;28;20055;-60
2022/03/29 11:25:09;;;;;;;28.20;15.02;;;;;;;;;;5050997;28;20350;-60
2022/03/29 11:27:38;;;;;;;31.50;16.77;;;;;;;;;;5051423;28;20037;-61
2022/03/29 11:30:06;;;;;;;31.08;15.73;;;;;;;;;;5044743;28;20044;-60
2022/03/29 11:32:34;;;;;;;34.90;15.80;;;;;;;;;;5046894;28;20036;-60
2022/03/29 11:35:00;;;;;;;28.80;16.10;;;;;;;;;;5050500;28;20049;-60
2022/03/29 11:37:29;;;;;;;25.70;15.02;;;;;;;;;;5052721;28;20515;-60
2022/03/29 11:39:56;;;;;;;30.05;15.57;;;;;;;;;;5036770;28;20033;-61
2022/03/29 11:42:22;;;;;;;35.58;17.77;;;;;;;;;;5042663;28;20038;-60
2022/03/29 11:44:49;;;;;;;31.23;15.85;;;;;;;;;;5035977;28;20045;-60
2022/03/29 11:47:15;;;;;;;32.25;16.52;;;;;;;;;;5034733;28;20432;-60
2022/03/29 11:49:44;;;;;;;34.40;16.40;;;;;;;;;;5051898;28;20432;-60
2022/03/29 11:52:15;;;;;;;35.72;17.95;;;;;;;;;;5002743;28;20037;-60
2022/03/29 11:54:46;;;;;;;30.10;15.65;;;;;;;;;;5036338;28;20147;-60
2022/03/29 11:57:14;;;;;;;39.17;17.30;;;;;;;;;;5054538;28;20083;-59
2022/03/29 11:59:42;;;;;;;28.90;17.08;;;;;;;;;;5052876;28;20037;-60
2022/03/29 12:02:08;;;;;;;29.08;17.17;;;;;;;;;;5047344;28;20045;-60
2022/03/29 12:04:37;;;;;;;35.72;17.02;;;;;;;;;;5033466;28;20053;-60
2022/03/29 12:07:05;;;;;;;34.92;17.33;;;;;;;;;;5005843;28;20331;-60
2022/03/29 12:09:35;;;;;;;27.98;16.52;;;;;;;;;;5010617;28;20592;-60
2022/03/29 12:12:03;;;;;;;33.63;16.40;;;;;;;;;;5038586;28;20045;-60
2022/03/29 12:14:30;;;;;;;29.35;16.17;;;;;;;;;;5049523;28;20143;-60
2022/03/29 12:17:04;;;;;;;30.65;15.95;;;;;;;;;;5051705;28;20029;-60
2022/03/29 12:19:34;;;;;;;34.22;16.80;;;;;;;;;;5052655;28;20044;-59
2022/03/29 12:22:06;;;;;;;29.50;16.00;;;;;;;;;;5054093;28;20489;-60
2022/03/29 12:24:39;;;;;;;31.92;17.02;;;;;;;;;;5052116;28;20048;-59
2022/03/29 12:27:13;;;;;;;32.40;16.90;;;;;;;;;;5035186;28;20052;-59
2022/03/29 12:29:43;;;;;;;28.27;15.38;;;;;;;;;;5043919;28;20099;-59
2022/03/29 12:32:09;;;;;;;31.08;17.40;;;;;;;;;;5035858;28;20057;-61
2022/03/29 12:34:38;;;;;;;34.35;16.25;;;;;;;;;;5049243;28;20041;-60
2022/03/29 12:37:08;;;;;;;35.60;16.90;;;;;;;;;;5046895;28;20116;-60
2022/03/29 12:39:35;;;;;;;34.42;17.00;;;;;;;;;;5024222;28;20040;-60
2022/03/29 12:42:01;;;;;;;30.67;16.80;;;;;;;;;;5045432;28;20033;-60
2022/03/29 12:44:29;;;;;;;30.10;15.50;;;;;;;;;;5045023;28;20045;-60
2022/03/29 12:46:55;;;;;;;30.20;15.80;;;;;;;;;;5037758;28;20037;-60
2022/03/29 12:49:24;;;;;;;29.77;14.75;;;;;;;;;;5043867;28;20059;-60
2022/03/29 12:52:00;;;;;;;33.63;15.85;;;;;;;;;;5031102;28;20052;-60
2022/03/29 12:54:34;;;;;;;30.30;14.02;;;;;;;;;;5025264;28;20033;-60
2022/03/29 12:57:00;;;;;;;27.92;12.90;;;;;;;;;;5046867;28;20477;-60
2022/03/29 12:59:32;;;;;;;28.55;12.27;;;;;;;;;;5048996;28;20041;-60
2022/03/29 13:02:12;;;;;;;31.02;13.38;;;;;;;;;;5029870;28;20132;-60
2022/03/29 13:04:44;;;;;;;27.10;12.43;;;;;;;;;;5039881;28;20033;-60
2022/03/29 13:07:11;;;;;;;28.50;12.82;;;;;;;;;;5045107;28;20824;-60
2022/03/29 13:09:37;;;;;;;32.63;12.80;;;;;;;;;;5039798;28;20128;-60
2022/03/29 13:12:14;;;;;;;23.58;11.45;;;;;;;;;;5049588;28;20057;-60
2022/03/29 13:14:41;;;;;;;30.85;12.05;;;;;;;;;;5037255;28;20041;-60
2022/03/29 13:17:07;;;;;;;33.42;11.13;;;;;;;;;;5023077;28;20060;-60
2022/03/29 13:19:33;;;;;;;23.70;11.50;;;;;;;;;;5036637;28;20403;-60
2022/03/29 13:22:01;;;;;;;28.33;10.85;;;;;;;;;;5048669;28;20037;-60
2022/03/29 13:24:34;;;;;;;23.80;10.65;;;;;;;;;;5041395;28;20044;-60
2022/03/29 13:27:01;;;;;;;28.40;10.98;;;;;;;;;;5024793;28;20127;-60
2022/03/29 13:29:27;;;;;;;30.38;11.20;;;;;;;;;;5045062;28;20074;-60
2022/03/29 13:31:54;;;;;;;24.75;10.15;;;;;;;;;;5027845;28;20128;-60
2022/03/29 13:34:21;;;;;;;29.48;10.60;;;;;;;;;;5033369;28;20040;-60
2022/03/29 13:36:49;;;;;;;26.80;11.25;;;;;;;;;;5037348;28;20060;-60
2022/03/29 13:39:16;;;;;;;23.88;11.90;;;;;;;;;;5035668;28;20047;-60
2022/03/29 13:41:42;;;;;;;29.45;10.20;;;;;;;;;;5028997;28;20087;-60
2022/03/29 13:44:12;;;;;;;31.67;11.45;;;;;;;;;;5043456;28;20072;-60
2022/03/29 13:46:38;;;;;;;30.70;11.43;;;;;;;;;;5019063;28;20088;-60
2022/03/29 13:49:05;;;;;;;29.48;10.63;;;;;;;;;;5045880;28;20041;-60
2022/03/29 13:51:34;;;;;;;29.83;11.75;;;;;;;;;;5041916;28;20040;-61
2022/03/29 13:54:00;;;;;;;26.05;11.82;;;;;;;;;;5029485;28;20056;-60
2022/03/29 13:56:33;;;;;;;27.90;10.63;;;;;;;;;;5029907;28;20144;-60
2022/03/29 13:59:00;;;;;;;35.08;12.00;;;;;;;;;;5034031;28;20124;-60
2022/03/29 14:01:26;;;;;;;26.15;10.68;;;;;;;;;;5046482;28;20524;-60
2022/03/29 14:03:52;;;;;;;28.33;11.07;;;;;;;;;;5014718;28;20108;-60
2022/03/29 14:06:21;;;;;;;27.05;10.77;;;;;;;;;;5047179;28;20043;-60
2022/03/29 14:08:48;;;;;;;25.85;9.48;;;;;;;;;;5037020;28;20384;-60
2022/03/29 14:11:14;;;;;;;27.48;10.73;;;;;;;;;;5036059;28;20045;-60
2022/03/29 14:13:44;;;;;;;27.58;11.52;;;;;;;;;;5033873;28;20068;-60
2022/03/29 14:16:10;;;;;;;31.30;9.60;;;;;;;;;;5044807;28;20045;-60
2022/03/29 14:18:36;;;;;;;21.52;9.35;;;;;;;;;;5038589;28;20465;-60
2022/03/29 14:21:02;;;;;;;23.08;9.23;;;;;;;;;;5015713;28;20053;-60
2022/03/29 14:23:29;;;;;;;24.85;10.00;;;;;;;;;;5045279;28;20059;-61
2022/03/29 14:25:55;;;;;;;28.25;9.23;;;;;;;;;;5049522;28;20041;-60
2022/03/29 14:28:22;;;;;;;29.33;9.07;;;;;;;;;;5054881;28;20485;-60
2022/03/29 14:30:52;;;;;;;27.17;9.43;;;;;;;;;;5056480;28;20124;-61